createdAt,value
2018-03-14T00:01:41.991Z,9.90
2018-03-14T00:04:09.544Z,9.50
2018-03-14T00:06:37.582Z,10.23
2018-03-14T00:09:05.133Z,10.77
2018-03-14T00:11:32.657Z,8.70
2018-03-14T00:14:00.225Z,11.52
2018-03-14T00:16:27.787Z,10.85
2018-03-14T00:18:56.278Z,8.60
2018-03-14T00:21:23.828Z,9.63
2018-03-14T00:23:51.350Z,9.57
2018-03-14T00:26:19.293Z,10.50
2018-03-14T00:28:46.829Z,11.52
2018-03-14T00:31:14.365Z,10.68
2018-03-14T00:33:41.929Z,10.77
2018-03-14T00:36:09.474Z,9.05
2018-03-14T00:38:37.256Z,9.00
2018-03-14T00:41:05.767Z,7.72
2018-03-14T00:43:33.282Z,9.98
2018-03-14T00:46:00.834Z,7.85
2018-03-14T00:48:29.367Z,8.43
2018-03-14T00:50:57.104Z,7.45
2018-03-14T00:53:24.643Z,7.68
2018-03-14T00:55:52.186Z,7.78
2018-03-14T00:58:19.755Z,7.20
2018-03-14T01:00:47.286Z,7.10
2018-03-14T01:03:15.221Z,6.45
2018-03-14T01:05:43.625Z,5.32
2018-03-14T01:08:11.149Z,5.97
2018-03-14T01:10:38.695Z,5.82
2018-03-14T01:13:06.219Z,6.60
2018-03-14T01:15:33.925Z,6.30
2018-03-14T01:18:01.448Z,4.87
2018-03-14T01:20:28.974Z,4.68
2018-03-14T01:22:56.524Z,5.05
2018-03-14T01:25:24.057Z,5.53
2018-03-14T01:27:51.826Z,4.72
2018-03-14T01:30:19.363Z,5.47
2018-03-14T01:32:46.893Z,5.85
2018-03-14T01:35:14.437Z,6.20
2018-03-14T01:37:41.976Z,6.47
2018-03-14T01:40:09.682Z,5.90
2018-03-14T01:42:37.215Z,6.20
2018-03-14T01:45:04.740Z,6.45
2018-03-14T01:47:32.733Z,6.18
2018-03-14T01:50:00.277Z,6.85
2018-03-14T01:52:28.129Z,6.78
2018-03-14T01:54:55.649Z,5.05
2018-03-14T01:57:24.198Z,5.80
2018-03-14T01:59:51.755Z,4.95
2018-03-14T02:02:19.277Z,5.12
2018-03-14T02:04:46.953Z,5.00
2018-03-14T02:07:14.474Z,5.20
2018-03-14T02:09:42.481Z,7.18
2018-03-14T02:12:10.022Z,5.22
2018-03-14T02:14:37.545Z,5.85
2018-03-14T02:17:05.262Z,6.53
2018-03-14T02:19:32.788Z,8.27
2018-03-14T02:22:00.326Z,8.07
2018-03-14T02:24:27.874Z,9.48
2018-03-14T02:26:55.414Z,10.90
2018-03-14T02:29:23.261Z,10.50
2018-03-14T02:31:50.791Z,10.63
2018-03-14T02:34:18.320Z,10.15
2018-03-14T02:36:57.833Z,10.45
2018-03-14T02:39:25.361Z,11.10
2018-03-14T02:41:53.142Z,10.40
2018-03-14T02:44:20.684Z,10.95
2018-03-14T02:46:48.217Z,10.68
2018-03-14T02:49:16.664Z,9.65
2018-03-14T02:51:44.174Z,10.15
2018-03-14T02:54:11.965Z,10.30
2018-03-14T02:56:39.492Z,11.98
2018-03-14T02:59:07.518Z,11.40
2018-03-14T03:01:35.085Z,11.80
2018-03-14T03:04:02.597Z,9.75
2018-03-14T03:06:30.154Z,8.93
2018-03-14T03:08:57.666Z,11.18
2018-03-14T03:11:25.178Z,8.52
2018-03-14T03:13:52.722Z,10.15
2018-03-14T03:16:20.246Z,10.60
2018-03-14T03:18:47.986Z,9.93
2018-03-14T03:21:15.957Z,10.98
2018-03-14T03:23:43.465Z,9.80
2018-03-14T03:26:11.011Z,11.50
2018-03-14T03:28:38.521Z,11.02
2018-03-14T03:31:07.008Z,9.93
2018-03-14T03:33:35.474Z,10.60
2018-03-14T03:36:02.986Z,11.10
2018-03-14T03:38:30.611Z,10.07
2018-03-14T03:40:58.121Z,10.95
2018-03-14T03:43:25.667Z,11.30
2018-03-14T03:45:53.177Z,10.65
2018-03-14T03:48:20.686Z,11.98
2018-03-14T03:50:49.127Z,10.05
2018-03-14T03:53:17.583Z,11.68
2018-03-14T03:55:45.339Z,10.50
2018-03-14T03:58:12.849Z,11.82
2018-03-14T04:00:41.328Z,10.40
2018-03-14T04:03:09.254Z,10.70
2018-03-14T04:05:36.770Z,11.40
2018-03-14T04:08:04.340Z,10.48
2018-03-14T04:10:32.774Z,10.90
2018-03-14T04:13:00.285Z,10.48
2018-03-14T04:15:28.710Z,10.15
2018-03-14T04:17:56.225Z,9.95
2018-03-14T04:20:23.931Z,11.38
2018-03-14T04:22:51.442Z,10.35
2018-03-14T04:25:18.948Z,10.73
2018-03-14T04:27:46.482Z,10.90
2018-03-14T04:30:13.990Z,10.63
2018-03-14T04:32:41.543Z,11.88
2018-03-14T04:35:09.048Z,9.50
2018-03-14T04:37:37.566Z,10.00
2018-03-14T04:40:05.117Z,11.05
2018-03-14T04:42:32.633Z,10.15
2018-03-14T04:45:00.525Z,8.50
2018-03-14T04:47:28.044Z,7.45
2018-03-14T04:49:55.549Z,9.10
2018-03-14T04:52:23.078Z,8.32
2018-03-14T04:54:50.606Z,9.15
2018-03-14T04:57:18.369Z,9.15
2018-03-14T04:59:45.874Z,8.85
2018-03-14T05:02:13.391Z,9.30
2018-03-14T05:04:40.970Z,9.00
2018-03-14T05:07:08.478Z,10.00
2018-03-14T05:09:36.219Z,9.10
2018-03-14T05:12:03.730Z,8.63
2018-03-14T05:14:31.233Z,10.20
2018-03-14T05:16:58.777Z,10.52
2018-03-14T05:19:26.298Z,10.02
2018-03-14T05:21:53.849Z,9.52
2018-03-14T05:24:21.366Z,11.15
2018-03-14T05:26:48.930Z,9.48
2018-03-14T05:29:16.445Z,8.45
2018-03-14T05:31:44.889Z,8.75
2018-03-14T05:34:12.444Z,10.07
2018-03-14T05:36:39.957Z,8.90
2018-03-14T05:39:08.590Z,8.63
2018-03-14T05:41:36.142Z,10.55
2018-03-14T05:44:03.645Z,9.85
2018-03-14T05:46:31.190Z,10.23
2018-03-14T05:48:58.694Z,9.43
2018-03-14T05:51:26.206Z,10.18
2018-03-14T05:53:53.751Z,8.95
2018-03-14T05:56:21.257Z,9.98
2018-03-14T05:58:50.188Z,9.73
2018-03-14T06:01:17.698Z,9.38
2018-03-14T06:03:45.203Z,9.30
2018-03-14T06:06:12.734Z,9.85
2018-03-14T06:08:40.237Z,9.70
2018-03-14T06:11:07.966Z,9.40
2018-03-14T06:13:35.496Z,10.07
2018-03-14T06:16:03.005Z,8.52
2018-03-14T06:18:30.535Z,8.45
2018-03-14T06:20:58.049Z,10.48
2018-03-14T06:23:25.601Z,8.45
2018-03-14T06:25:53.114Z,9.50
2018-03-14T06:28:20.641Z,8.63
2018-03-14T06:30:48.177Z,8.18
2018-03-14T06:33:15.690Z,7.85
2018-03-14T06:35:43.477Z,8.70
2018-03-14T06:38:10.990Z,10.02
2018-03-14T06:40:38.510Z,8.48
2018-03-14T06:43:06.461Z,8.27
2018-03-14T06:45:33.972Z,8.00
2018-03-14T06:48:01.529Z,8.93
2018-03-14T06:50:29.039Z,7.18
2018-03-14T06:52:56.578Z,7.62
2018-03-14T06:55:24.109Z,7.80
2018-03-14T06:57:51.617Z,8.30
2018-03-14T07:00:31.767Z,9.38
2018-03-14T07:03:11.113Z,7.72
2018-03-14T07:05:50.437Z,8.75
2018-03-14T07:08:17.950Z,8.23
2018-03-14T07:10:45.738Z,8.07
2018-03-14T07:13:13.246Z,8.20
2018-03-14T07:15:40.775Z,8.48
2018-03-14T07:18:08.318Z,7.93
2018-03-14T07:20:35.830Z,7.35
2018-03-14T07:23:03.378Z,9.20
2018-03-14T07:25:30.906Z,7.03
2018-03-14T07:27:58.422Z,6.70
2018-03-14T07:30:25.970Z,7.93
2018-03-14T07:32:53.484Z,8.60
2018-03-14T07:35:21.046Z,7.97
2018-03-14T07:37:48.609Z,5.80
2018-03-14T07:40:16.125Z,7.70
2018-03-14T07:42:44.134Z,7.75
2018-03-14T07:45:11.795Z,7.43
2018-03-14T07:47:39.739Z,8.02
2018-03-14T07:50:07.280Z,7.20
2018-03-14T07:52:34.794Z,6.82
2018-03-14T07:55:02.334Z,8.15
2018-03-14T07:57:30.308Z,8.25
2018-03-14T07:59:57.849Z,7.28
2018-03-14T08:02:26.450Z,6.75
2018-03-14T08:04:54.413Z,7.50
2018-03-14T08:07:21.952Z,7.68
2018-03-14T08:09:49.468Z,7.03
2018-03-14T08:12:17.114Z,7.93
2018-03-14T08:14:44.625Z,7.10
2018-03-14T08:17:12.142Z,7.28
2018-03-14T08:19:39.684Z,7.03
2018-03-14T08:22:07.231Z,7.82
2018-03-14T08:24:34.968Z,8.25
2018-03-14T08:27:02.481Z,6.60
2018-03-14T08:29:30.117Z,7.62
2018-03-14T08:31:57.656Z,7.22
2018-03-14T08:34:25.245Z,6.90
2018-03-14T08:36:52.874Z,6.47
2018-03-14T08:39:20.452Z,6.25
2018-03-14T08:41:48.062Z,6.30
2018-03-14T08:44:15.775Z,6.32
2018-03-14T08:46:43.312Z,6.70
2018-03-14T08:49:10.872Z,5.57
2018-03-14T08:51:38.378Z,5.53
2018-03-14T08:54:05.898Z,7.97
2018-03-14T08:56:33.463Z,6.78
2018-03-14T08:59:00.974Z,6.00
2018-03-14T09:01:28.537Z,6.00
2018-03-14T09:03:57.310Z,7.35
2018-03-14T09:06:24.830Z,4.57
2018-03-14T09:08:53.677Z,4.43
2018-03-14T09:11:21.692Z,5.45
2018-03-14T09:13:49.354Z,5.65
2018-03-14T09:16:16.893Z,6.60
2018-03-14T09:18:44.427Z,6.20
2018-03-14T09:21:11.970Z,3.77
2018-03-14T09:23:39.486Z,4.90
2018-03-14T09:26:07.329Z,5.33
2018-03-14T09:28:34.846Z,4.67
2018-03-14T09:31:02.367Z,5.70
2018-03-14T09:33:29.915Z,5.17
2018-03-14T09:35:57.441Z,4.00
2018-03-14T09:38:25.122Z,5.07
2018-03-14T09:40:52.632Z,4.57
2018-03-14T09:43:20.157Z,4.50
2018-03-14T09:45:47.702Z,5.50
2018-03-14T09:48:15.694Z,4.67
2018-03-14T09:50:43.429Z,4.37
2018-03-14T09:53:11.071Z,4.17
2018-03-14T09:55:38.595Z,4.90
2018-03-14T09:58:06.215Z,4.90
2018-03-14T10:00:33.732Z,5.47
2018-03-14T10:03:01.271Z,4.00
2018-03-14T10:05:28.786Z,3.87
2018-03-14T10:07:56.301Z,4.20
2018-03-14T10:10:23.843Z,5.60
2018-03-14T10:12:51.551Z,4.20
2018-03-14T10:15:19.261Z,4.07
2018-03-14T10:17:46.792Z,3.83
2018-03-14T10:20:14.476Z,4.00
2018-03-14T10:22:42.444Z,3.60
2018-03-14T10:25:10.928Z,3.30
2018-03-14T10:27:38.779Z,3.70
2018-03-14T10:30:06.664Z,4.47
2018-03-14T10:32:34.195Z,4.07
2018-03-14T10:35:01.734Z,5.27
2018-03-14T10:37:29.282Z,3.70
2018-03-14T10:39:56.975Z,4.83
2018-03-14T10:42:24.970Z,4.50
2018-03-14T10:44:52.474Z,4.30
2018-03-14T10:47:20.007Z,4.63
2018-03-14T10:49:47.581Z,5.70
2018-03-14T10:52:15.138Z,4.40
2018-03-14T10:54:42.653Z,5.20
2018-03-14T10:57:10.166Z,4.70
2018-03-14T10:59:37.709Z,4.50
2018-03-14T11:05:10.222Z,5.33
2018-03-14T11:07:37.757Z,5.03
2018-03-14T11:10:05.629Z,5.43
2018-03-14T11:12:33.138Z,5.40
2018-03-14T11:15:00.662Z,4.40
2018-03-14T11:17:28.204Z,4.57
2018-03-14T11:19:55.714Z,4.70
2018-03-14T11:22:24.213Z,5.93
2018-03-14T11:24:51.721Z,4.67
2018-03-14T11:27:19.234Z,5.83
2018-03-14T11:29:46.782Z,4.83
2018-03-14T11:32:14.297Z,5.20
2018-03-14T11:34:41.982Z,5.80
2018-03-14T11:37:09.772Z,5.97
2018-03-14T11:39:37.300Z,5.80
2018-03-14T11:42:04.843Z,5.80
2018-03-14T11:44:32.360Z,4.97
2018-03-14T11:47:00.086Z,5.80
2018-03-14T11:49:27.595Z,5.70
2018-03-14T11:51:55.100Z,5.40
2018-03-14T11:54:22.629Z,4.57
2018-03-14T11:56:50.188Z,6.70
2018-03-14T11:59:17.878Z,5.77
2018-03-14T12:01:45.397Z,5.63
2018-03-14T12:04:12.907Z,5.17
2018-03-14T12:06:40.450Z,5.20
2018-03-14T12:09:08.014Z,5.13
2018-03-14T12:11:35.554Z,6.10
2018-03-14T12:14:03.088Z,4.60
2018-03-14T12:16:30.597Z,3.60
2018-03-14T12:18:58.126Z,4.40
2018-03-14T12:21:25.633Z,3.33
2018-03-14T12:23:53.483Z,3.87
2018-03-14T12:26:21.205Z,3.60
2018-03-14T12:28:48.742Z,4.33
2018-03-14T12:31:16.484Z,4.77
2018-03-14T12:33:44.003Z,4.83
2018-03-14T12:36:12.068Z,5.97
2018-03-14T12:38:39.585Z,6.47
2018-03-14T12:41:07.117Z,5.50
2018-03-14T12:43:34.794Z,5.23
2018-03-14T12:46:02.411Z,5.37
2018-03-14T12:48:30.525Z,4.50
2018-03-14T12:50:58.290Z,4.67
2018-03-14T12:53:26.156Z,7.10
2018-03-14T12:55:54.124Z,5.70
2018-03-14T12:58:21.686Z,5.60
2018-03-14T13:00:49.437Z,6.70
2018-03-14T13:03:17.305Z,7.00
2018-03-14T13:05:45.032Z,7.77
2018-03-14T13:08:12.828Z,6.83
2018-03-14T13:10:40.374Z,6.73
2018-03-14T13:13:08.211Z,6.63
2018-03-14T13:15:35.828Z,6.50
2018-03-14T13:18:03.592Z,6.97
2018-03-14T13:20:31.333Z,7.07
2018-03-14T13:22:58.850Z,6.37
2018-03-14T13:25:26.411Z,7.13
2018-03-14T13:27:54.125Z,6.17
2018-03-14T13:30:21.650Z,7.30
2018-03-14T13:32:49.243Z,7.20
2018-03-14T13:35:17.428Z,6.07
2018-03-14T13:37:45.032Z,5.50
2018-03-14T13:40:12.611Z,7.10
2018-03-14T13:42:40.152Z,7.00
2018-03-14T13:45:07.718Z,6.27
2018-03-14T13:47:35.225Z,6.93
2018-03-14T13:50:02.954Z,5.97
2018-03-14T13:52:30.501Z,6.53
2018-03-14T13:54:58.049Z,6.50
2018-03-14T13:57:25.972Z,6.50
2018-03-14T13:59:53.521Z,5.50
2018-03-14T14:02:21.098Z,6.40
2018-03-14T14:04:48.671Z,6.03
2018-03-14T14:07:16.722Z,6.77
2018-03-14T14:09:44.256Z,5.90
2018-03-14T14:12:11.987Z,5.83
2018-03-14T14:14:39.707Z,6.83
2018-03-14T14:17:07.224Z,6.30
2018-03-14T14:19:34.874Z,5.97
2018-03-14T14:22:02.389Z,5.90
2018-03-14T14:24:30.035Z,7.30
2018-03-14T14:26:57.622Z,6.70
2018-03-14T14:29:25.151Z,6.77
2018-03-14T14:31:52.803Z,7.03
2018-03-14T14:34:20.661Z,7.10
2018-03-14T14:36:48.206Z,6.93
2018-03-14T14:39:15.914Z,6.80
2018-03-14T14:41:43.660Z,6.70
2018-03-14T14:44:11.442Z,7.00
2018-03-14T14:46:39.103Z,6.60
2018-03-14T14:49:07.585Z,6.90
2018-03-14T14:51:35.862Z,6.47
2018-03-14T14:54:03.475Z,5.77
2018-03-14T14:56:31.023Z,6.47
2018-03-14T14:58:59.704Z,7.00
2018-03-14T15:01:27.297Z,6.17
2018-03-14T15:03:55.091Z,6.07
2018-03-14T15:06:22.854Z,5.87
2018-03-14T15:08:50.823Z,7.40
2018-03-14T15:11:18.558Z,7.07
2018-03-14T15:13:46.455Z,6.80
2018-03-14T15:16:14.631Z,6.60
2018-03-14T15:18:43.214Z,6.40
2018-03-14T15:21:11.190Z,7.20
2018-03-14T15:23:38.931Z,6.57
2018-03-14T15:26:07.015Z,7.00
2018-03-14T15:28:34.985Z,6.50
2018-03-14T15:31:02.913Z,6.73
2018-03-14T15:33:31.026Z,7.03
2018-03-14T15:35:58.881Z,7.90
2018-03-14T15:38:26.968Z,6.87
2018-03-14T15:40:54.828Z,7.13
2018-03-14T15:43:23.515Z,5.80
2018-03-14T15:45:51.482Z,6.53
2018-03-14T15:48:19.341Z,7.00
2018-03-14T15:50:47.281Z,7.50
2018-03-14T15:53:14.980Z,6.80
2018-03-14T15:55:42.744Z,7.30
2018-03-14T15:58:10.510Z,6.73
2018-03-14T16:00:38.271Z,7.60
2018-03-14T16:03:06.343Z,7.80
2018-03-14T16:05:34.004Z,6.40
2018-03-14T16:08:01.556Z,8.15
2018-03-14T16:10:29.224Z,8.20
2018-03-14T16:12:57.091Z,7.15
2018-03-14T16:15:24.956Z,7.55
2018-03-14T16:17:52.630Z,6.40
2018-03-14T16:20:20.280Z,7.10
2018-03-14T16:22:48.249Z,6.93
2018-03-14T16:25:16.117Z,6.50
2018-03-14T16:27:43.880Z,7.30
2018-03-14T16:30:11.747Z,8.35
2018-03-14T16:32:39.513Z,8.23
2018-03-14T16:35:07.377Z,6.62
2018-03-14T16:37:35.222Z,8.23
2018-03-14T16:40:03.100Z,8.30
2018-03-14T16:42:30.874Z,8.55
2018-03-14T16:44:58.720Z,9.23
2018-03-14T16:47:26.505Z,7.90
2018-03-14T16:49:54.373Z,7.37
2018-03-14T16:52:22.749Z,8.88
2018-03-14T16:54:50.618Z,9.00
2018-03-14T16:57:18.482Z,8.27
2018-03-14T16:59:46.449Z,7.80
2018-03-14T17:02:14.238Z,7.55
2018-03-14T17:04:42.184Z,9.15
2018-03-14T17:07:10.051Z,9.32
2018-03-14T17:09:37.919Z,8.68
2018-03-14T17:12:05.884Z,9.55
2018-03-14T17:14:33.857Z,7.60
2018-03-14T17:17:01.888Z,8.95
2018-03-14T17:19:29.792Z,7.75
2018-03-14T17:21:57.659Z,7.60
2018-03-14T17:24:25.627Z,8.05
2018-03-14T17:26:53.498Z,8.27
2018-03-14T17:29:21.564Z,8.00
2018-03-14T17:31:49.613Z,8.65
2018-03-14T17:34:17.608Z,9.48
2018-03-14T17:36:45.575Z,9.70
2018-03-14T17:39:13.544Z,8.82
2018-03-14T17:41:41.781Z,9.35
2018-03-14T17:44:09.688Z,9.35
2018-03-14T17:46:37.488Z,7.70
2018-03-14T17:49:05.317Z,9.88
2018-03-14T17:51:33.859Z,12.02
2018-03-14T17:54:02.381Z,15.00
2018-03-14T17:56:30.206Z,11.82
2018-03-14T17:58:58.114Z,11.12
2018-03-14T18:01:26.082Z,11.12
2018-03-14T18:03:53.949Z,14.77
2018-03-14T18:06:22.225Z,13.38
2018-03-14T18:08:51.628Z,13.80
2018-03-14T18:11:19.698Z,14.07
2018-03-14T18:13:48.795Z,13.48
2018-03-14T18:16:16.763Z,12.18
2018-03-14T18:18:46.883Z,11.20
2018-03-14T18:21:14.749Z,10.30
2018-03-14T18:23:42.716Z,9.35
2018-03-14T18:26:11.502Z,8.52
2018-03-14T18:28:39.369Z,9.15
2018-03-14T18:31:07.640Z,10.10
2018-03-14T18:33:35.641Z,9.90
2018-03-14T18:36:07.679Z,8.85
2018-03-14T18:38:35.956Z,8.85
2018-03-14T18:41:03.924Z,8.93
2018-03-14T18:43:31.723Z,8.10
2018-03-14T18:45:59.762Z,8.68
2018-03-14T18:48:27.627Z,9.05
2018-03-14T18:50:55.742Z,9.63
2018-03-14T18:53:24.440Z,9.10
2018-03-14T18:55:52.556Z,8.48
2018-03-14T18:58:20.422Z,8.07
2018-03-14T19:00:49.109Z,9.30
2018-03-14T19:03:18.786Z,9.93
2018-03-14T19:05:46.685Z,9.90
2018-03-14T19:08:15.082Z,11.10
2018-03-14T19:10:42.889Z,10.30
2018-03-14T19:13:10.750Z,9.00
2018-03-14T19:15:38.646Z,9.02
2018-03-14T19:18:06.531Z,9.25
2018-03-14T19:20:36.035Z,9.40
2018-03-14T19:23:04.108Z,9.00
2018-03-14T19:25:32.586Z,9.30
2018-03-14T19:28:00.561Z,9.15
2018-03-14T19:30:28.832Z,10.18
2018-03-14T19:32:57.109Z,9.27
2018-03-14T19:35:25.075Z,10.35
2018-03-14T19:37:52.918Z,11.05
2018-03-14T19:40:21.013Z,10.30
2018-03-14T19:42:49.098Z,12.55
2018-03-14T19:45:17.366Z,10.45
2018-03-14T19:47:45.228Z,11.30
2018-03-14T19:50:13.212Z,10.80
2018-03-14T19:52:42.190Z,10.05
2018-03-14T19:55:10.061Z,11.07
2018-03-14T19:57:38.146Z,11.00
2018-03-14T20:00:07.016Z,10.65
2018-03-14T20:02:34.883Z,9.55
2018-03-14T20:05:02.856Z,9.55
2018-03-14T20:07:30.718Z,9.63
2018-03-14T20:09:58.994Z,10.25
2018-03-14T20:12:26.861Z,10.38
2018-03-14T20:14:54.669Z,9.55
2018-03-14T20:17:22.697Z,9.15
2018-03-14T20:19:50.558Z,9.32
2018-03-14T20:22:18.755Z,9.93
2018-03-14T20:24:47.286Z,9.88
2018-03-14T20:27:15.390Z,9.48
2018-03-14T20:29:43.359Z,9.55
2018-03-14T20:32:11.225Z,9.50
2018-03-14T20:34:39.129Z,8.90
2018-03-14T20:37:07.020Z,8.88
2018-03-14T20:39:35.238Z,11.00
2018-03-14T20:42:03.182Z,13.88
2018-03-14T20:44:31.071Z,12.10
2018-03-14T20:47:00.136Z,11.12
2018-03-14T20:49:28.208Z,12.95
2018-03-14T20:51:57.228Z,12.70
2018-03-14T20:54:25.261Z,12.88
2018-03-14T20:56:53.166Z,11.10
2018-03-14T20:59:21.739Z,11.12
2018-03-14T21:01:50.640Z,11.95
2018-03-14T21:04:18.713Z,11.05
2018-03-14T21:06:46.680Z,11.45
2018-03-14T21:09:15.263Z,10.07
2018-03-14T21:11:44.667Z,11.80
2018-03-14T21:14:13.454Z,9.85
2018-03-14T21:16:41.320Z,11.55
2018-03-14T21:19:09.290Z,13.13
2018-03-14T21:21:38.198Z,12.13
2018-03-14T21:24:06.251Z,11.10
2018-03-14T21:26:34.556Z,13.20
2018-03-14T21:29:02.496Z,11.65
2018-03-14T21:31:30.364Z,12.15
2018-03-14T21:33:58.638Z,12.13
2018-03-14T21:36:26.847Z,10.20
2018-03-14T21:38:55.663Z,11.05
2018-03-14T21:41:24.285Z,11.55
2018-03-14T21:43:52.253Z,19.48
2018-03-14T21:46:20.187Z,14.30
2018-03-14T21:48:48.501Z,11.70
2018-03-14T21:51:16.410Z,11.70
2018-03-14T21:53:44.281Z,12.77
2018-03-14T21:56:12.207Z,9.23
2018-03-14T21:58:39.967Z,9.88
2018-03-14T22:01:07.937Z,19.92
2018-03-14T22:03:36.007Z,18.33
2018-03-14T22:06:04.332Z,20.83
2018-03-14T22:08:32.559Z,15.50
2018-03-14T22:11:00.222Z,13.40
2018-03-14T22:13:28.107Z,12.40
2018-03-14T22:15:55.952Z,13.95
2018-03-14T22:18:23.819Z,14.27
2018-03-14T22:20:51.468Z,16.95
2018-03-14T22:23:19.288Z,14.02
2018-03-14T22:25:47.010Z,13.73
2018-03-14T22:28:14.772Z,12.55
2018-03-14T22:30:42.639Z,16.15
2018-03-14T22:33:10.260Z,11.60
2018-03-14T22:35:37.889Z,12.05
2018-03-14T22:38:05.604Z,11.52
2018-03-14T22:40:33.184Z,11.85
2018-03-14T22:43:00.802Z,9.80
2018-03-14T22:45:28.352Z,10.63
2018-03-14T22:47:55.893Z,10.93
2018-03-14T22:50:23.623Z,10.02
2018-03-14T22:52:51.285Z,10.05
2018-03-14T22:55:19.006Z,11.05
2018-03-14T22:57:46.714Z,10.52
2018-03-14T23:00:14.683Z,13.18
2018-03-14T23:02:42.546Z,11.27
2018-03-14T23:05:11.193Z,11.60
2018-03-14T23:07:39.289Z,12.18
2018-03-14T23:10:06.938Z,11.02
2018-03-14T23:12:34.731Z,10.82
2018-03-14T23:15:02.482Z,10.77
2018-03-14T23:17:30.259Z,11.30
2018-03-14T23:19:58.213Z,10.00
2018-03-14T23:22:25.874Z,11.90
2018-03-14T23:24:53.530Z,11.30
2018-03-14T23:27:21.211Z,10.85
2018-03-14T23:29:48.858Z,11.65
2018-03-14T23:32:16.453Z,12.27
2018-03-14T23:34:44.298Z,11.82
2018-03-14T23:37:11.887Z,11.85
2018-03-14T23:39:39.518Z,11.98
2018-03-14T23:42:07.038Z,12.57
2018-03-14T23:44:34.817Z,12.95
2018-03-14T23:47:02.342Z,12.77
2018-03-14T23:49:29.849Z,11.12
2018-03-14T23:51:57.381Z,10.98
2018-03-14T23:54:24.895Z,11.43
2018-03-14T23:56:53.355Z,12.82
2018-03-14T23:59:20.870Z,12.85
